<?xml version="1.0" encoding="utf-8"?>
<gpx xmlns:xsi="http://www.w3.org/2001/XMLSchema-instance" xmlns:xsd="http://www.w3.org/2001/XMLSchema" version="1.1" creator="Shapelink.com" xmlns="http://www.topografix.com/GPX/1/1" xmlns:gpxtpx="http://www.garmin.com/xmlschemas/TrackPointExtension/v1">
  <metadata>
    <name>Cycling 8.65 km, 2020-06-14</name>
    <desc></desc>
    <author><name>Marian Moron</name></author> 
    <time>2020-06-14T11:53:51Z</time>
  </metadata>
  <trk>
    <name>Cycling 8.65 km, 2020-06-14</name>
    <trkseg>
      <trkpt lat="51.22885097437" lon="4.44839502936">
        <ele>19.6</ele>
        <time>2020-06-14T11:53:51Z</time>
      </trkpt>
      <trkpt lat="51.22856096063" lon="4.447631689727">
        <ele>19.2</ele>
        <time>2020-06-14T11:54:15Z</time>
      </trkpt>
      <trkpt lat="51.228137004128" lon="4.447312842251">
        <ele>17.8</ele>
        <time>2020-06-14T11:54:36Z</time>
      </trkpt>
      <trkpt lat="51.227710113961" lon="4.447856240828">
        <ele>15.4</ele>
        <time>2020-06-14T11:54:57Z</time>
      </trkpt>
      <trkpt lat="51.227311889892" lon="4.448453283565">
        <ele>12.8</ele>
        <time>2020-06-14T11:55:19Z</time>
      </trkpt>
      <trkpt lat="51.227000334669" lon="4.449155016233">
        <ele>9.2</ele>
        <time>2020-06-14T11:55:39Z</time>
      </trkpt>
      <trkpt lat="51.226933279469" lon="4.449306393347">
        <ele>10.4</ele>
        <time>2020-06-14T11:56:06Z</time>
      </trkpt>
      <trkpt lat="51.226760779967" lon="4.449387781596">
        <ele>10.6</ele>
        <time>2020-06-14T11:56:19Z</time>
      </trkpt>
      <trkpt lat="51.226577300176" lon="4.449562125116">
        <ele>10</ele>
        <time>2020-06-14T11:56:31Z</time>
      </trkpt>
      <trkpt lat="51.226557854168" lon="4.449517617227">
        <ele>10</ele>
        <time>2020-06-14T11:56:34Z</time>
      </trkpt>
      <trkpt lat="51.226517704867" lon="4.449486688016">
        <ele>9.8</ele>
        <time>2020-06-14T11:56:37Z</time>
      </trkpt>
      <trkpt lat="51.2262249251" lon="4.448837258404">
        <ele>7.6</ele>
        <time>2020-06-14T11:57:01Z</time>
      </trkpt>
      <trkpt lat="51.226192319509" lon="4.44885603386">
        <ele>6.8</ele>
        <time>2020-06-14T11:57:03Z</time>
      </trkpt>
      <trkpt lat="51.225842961917" lon="4.449548881714">
        <ele>6.8</ele>
        <time>2020-06-14T11:57:24Z</time>
      </trkpt>
      <trkpt lat="51.225306352679" lon="4.44967662187">
        <ele>5.6</ele>
        <time>2020-06-14T11:57:45Z</time>
      </trkpt>
      <trkpt lat="51.224829841664" lon="4.450103092942">
        <ele>5.2</ele>
        <time>2020-06-14T11:58:05Z</time>
      </trkpt>
      <trkpt lat="51.224433210156" lon="4.45070759557">
        <ele>3.6</ele>
        <time>2020-06-14T11:58:20Z</time>
      </trkpt>
      <trkpt lat="51.224022497056" lon="4.451310086542">
        <ele>0</ele>
        <time>2020-06-14T11:58:41Z</time>
      </trkpt>
      <trkpt lat="51.223720916294" lon="4.451355600259">
        <ele>0</ele>
        <time>2020-06-14T11:58:54Z</time>
      </trkpt>
      <trkpt lat="51.223721503027" lon="4.451387283841">
        <ele>0</ele>
        <time>2020-06-14T11:58:56Z</time>
      </trkpt>
      <trkpt lat="51.223806160217" lon="4.451405556383">
        <ele>0</ele>
        <time>2020-06-14T11:59:01Z</time>
      </trkpt>
      <trkpt lat="51.223816302316" lon="4.451371693507">
        <ele>0</ele>
        <time>2020-06-14T11:59:03Z</time>
      </trkpt>
      <trkpt lat="51.223278184336" lon="4.451204558421">
        <ele>0</ele>
        <time>2020-06-14T11:59:25Z</time>
      </trkpt>
      <trkpt lat="51.222726152402" lon="4.451045637597">
        <ele>0</ele>
        <time>2020-06-14T11:59:48Z</time>
      </trkpt>
      <trkpt lat="51.222179484884" lon="4.451165079672">
        <ele>0</ele>
        <time>2020-06-14T12:00:09Z</time>
      </trkpt>
      <trkpt lat="51.221675313599" lon="4.451532542168">
        <ele>3.4</ele>
        <time>2020-06-14T12:00:31Z</time>
      </trkpt>
      <trkpt lat="51.221124287493" lon="4.451693558467">
        <ele>2.4</ele>
        <time>2020-06-14T12:00:55Z</time>
      </trkpt>
      <trkpt lat="51.220586588608" lon="4.45188609071">
        <ele>1.4</ele>
        <time>2020-06-14T12:01:14Z</time>
      </trkpt>
      <trkpt lat="51.220049895551" lon="4.451918696301">
        <ele>0</ele>
        <time>2020-06-14T12:01:37Z</time>
      </trkpt>
      <trkpt lat="51.219497695979" lon="4.452001928568">
        <ele>5.4</ele>
        <time>2020-06-14T12:01:56Z</time>
      </trkpt>
      <trkpt lat="51.218947256606" lon="4.451955157566">
        <ele>5.4</ele>
        <time>2020-06-14T12:02:13Z</time>
      </trkpt>
      <trkpt lat="51.218887996573" lon="4.451858598078">
        <ele>4.2</ele>
        <time>2020-06-14T12:02:15Z</time>
      </trkpt>
      <trkpt lat="51.218807949428" lon="4.45177209687">
        <ele>3.2</ele>
        <time>2020-06-14T12:02:17Z</time>
      </trkpt>
      <trkpt lat="51.218308639645" lon="4.45184250483">
        <ele>5.4</ele>
        <time>2020-06-14T12:02:34Z</time>
      </trkpt>
      <trkpt lat="51.218229179233" lon="4.452672732025">
        <ele>6.4</ele>
        <time>2020-06-14T12:02:49Z</time>
      </trkpt>
      <trkpt lat="51.218195567814" lon="4.453579653605">
        <ele>0</ele>
        <time>2020-06-14T12:03:04Z</time>
      </trkpt>
      <trkpt lat="51.218149299726" lon="4.454463189684">
        <ele>5.8</ele>
        <time>2020-06-14T12:03:25Z</time>
      </trkpt>
      <trkpt lat="51.218108060778" lon="4.455317724389">
        <ele>5.4</ele>
        <time>2020-06-14T12:03:46Z</time>
      </trkpt>
      <trkpt lat="51.218065229269" lon="4.456210061463">
        <ele>2.2</ele>
        <time>2020-06-14T12:04:06Z</time>
      </trkpt>
      <trkpt lat="51.21801485405" lon="4.457068535661">
        <ele>5.6</ele>
        <time>2020-06-14T12:04:26Z</time>
      </trkpt>
      <trkpt lat="51.217956516026" lon="4.457929021515">
        <ele>12.4</ele>
        <time>2020-06-14T12:04:47Z</time>
      </trkpt>
      <trkpt lat="51.217954336732" lon="4.45878690898">
        <ele>11</ele>
        <time>2020-06-14T12:05:06Z</time>
      </trkpt>
      <trkpt lat="51.217912678689" lon="4.459647478653">
        <ele>8.6</ele>
        <time>2020-06-14T12:05:25Z</time>
      </trkpt>
      <trkpt lat="51.217856184683" lon="4.460530595637">
        <ele>13</ele>
        <time>2020-06-14T12:05:46Z</time>
      </trkpt>
      <trkpt lat="51.217786111999" lon="4.461390410939">
        <ele>14.6</ele>
        <time>2020-06-14T12:06:07Z</time>
      </trkpt>
      <trkpt lat="51.217761804489" lon="4.462244610368">
        <ele>9.4</ele>
        <time>2020-06-14T12:06:28Z</time>
      </trkpt>
      <trkpt lat="51.217756104797" lon="4.463134349053">
        <ele>9.2</ele>
        <time>2020-06-14T12:06:50Z</time>
      </trkpt>
      <trkpt lat="51.21773908954" lon="4.464016544028">
        <ele>7.2</ele>
        <time>2020-06-14T12:07:12Z</time>
      </trkpt>
      <trkpt lat="51.217722744835" lon="4.464899912469">
        <ele>0</ele>
        <time>2020-06-14T12:07:33Z</time>
      </trkpt>
      <trkpt lat="51.217648145925" lon="4.465753525165">
        <ele>0</ele>
        <time>2020-06-14T12:07:51Z</time>
      </trkpt>
      <trkpt lat="51.217611768479" lon="4.466638318529">
        <ele>4</ele>
        <time>2020-06-14T12:08:10Z</time>
      </trkpt>
      <trkpt lat="51.21759911181" lon="4.466804028692">
        <ele>6.6</ele>
        <time>2020-06-14T12:08:15Z</time>
      </trkpt>
      <trkpt lat="51.217584611123" lon="4.46678659434">
        <ele>7.6</ele>
        <time>2020-06-14T12:08:19Z</time>
      </trkpt>
      <trkpt lat="51.217692402357" lon="4.467053557855">
        <ele>5.2</ele>
        <time>2020-06-14T12:14:00Z</time>
      </trkpt>
      <trkpt lat="51.217673123987" lon="4.467135532837">
        <ele>5.6</ele>
        <time>2020-06-14T12:14:06Z</time>
      </trkpt>
      <trkpt lat="51.217662646612" lon="4.467174089577">
        <ele>6.2</ele>
        <time>2020-06-14T12:14:08Z</time>
      </trkpt>
      <trkpt lat="51.217575139576" lon="4.468027199359">
        <ele>7</ele>
        <time>2020-06-14T12:14:36Z</time>
      </trkpt>
      <trkpt lat="51.217456032777" lon="4.468873519802">
        <ele>5.4</ele>
        <time>2020-06-14T12:14:56Z</time>
      </trkpt>
      <trkpt lat="51.21699393863" lon="4.469339134347">
        <ele>5.4</ele>
        <time>2020-06-14T12:15:25Z</time>
      </trkpt>
      <trkpt lat="51.216552380138" lon="4.469847245125">
        <ele>0.6</ele>
        <time>2020-06-14T12:16:00Z</time>
      </trkpt>
      <trkpt lat="51.216182067796" lon="4.470223676254">
        <ele>8.8</ele>
        <time>2020-06-14T12:16:25Z</time>
      </trkpt>
      <trkpt lat="51.216116521338" lon="4.470321995941">
        <ele>10.6</ele>
        <time>2020-06-14T12:19:16Z</time>
      </trkpt>
      <trkpt lat="51.216097242968" lon="4.470343621243">
        <ele>10.6</ele>
        <time>2020-06-14T12:19:18Z</time>
      </trkpt>
      <trkpt lat="51.215984506413" lon="4.470414113022">
        <ele>10.6</ele>
        <time>2020-06-14T12:19:26Z</time>
      </trkpt>
      <trkpt lat="51.215598017004" lon="4.469880856544">
        <ele>0</ele>
        <time>2020-06-14T12:19:56Z</time>
      </trkpt>
      <trkpt lat="51.215039447188" lon="4.46986526621">
        <ele>0</ele>
        <time>2020-06-14T12:20:20Z</time>
      </trkpt>
      <trkpt lat="51.215018660076" lon="4.469789577653">
        <ele>0</ele>
        <time>2020-06-14T12:20:22Z</time>
      </trkpt>
      <trkpt lat="51.214919753656" lon="4.469218937901">
        <ele>5.2</ele>
        <time>2020-06-14T12:20:50Z</time>
      </trkpt>
      <trkpt lat="51.214620016912" lon="4.468610831056">
        <ele>1.2</ele>
        <time>2020-06-14T12:21:22Z</time>
      </trkpt>
      <trkpt lat="51.214731160906" lon="4.467771216133">
        <ele>10.4</ele>
        <time>2020-06-14T12:21:48Z</time>
      </trkpt>
      <trkpt lat="51.214807687653" lon="4.467299650439">
        <ele>11.8</ele>
        <time>2020-06-14T12:22:01Z</time>
      </trkpt>
      <trkpt lat="51.214422036434" lon="4.466700763684">
        <ele>5.8</ele>
        <time>2020-06-14T12:22:22Z</time>
      </trkpt>
      <trkpt lat="51.213933204026" lon="4.466286027272">
        <ele>2</ele>
        <time>2020-06-14T12:22:46Z</time>
      </trkpt>
      <trkpt lat="51.21346096778" lon="4.466102882757">
        <ele>0</ele>
        <time>2020-06-14T12:23:11Z</time>
      </trkpt>
      <trkpt lat="51.213326186828" lon="4.46612107148">
        <ele>0</ele>
        <time>2020-06-14T12:23:19Z</time>
      </trkpt>
      <trkpt lat="51.213214120825" lon="4.465393941655">
        <ele>0</ele>
        <time>2020-06-14T12:23:43Z</time>
      </trkpt>
      <trkpt lat="51.212699807441" lon="4.465136784963">
        <ele>0</ele>
        <time>2020-06-14T12:24:09Z</time>
      </trkpt>
      <trkpt lat="51.21219949183" lon="4.465522436182">
        <ele>0</ele>
        <time>2020-06-14T12:24:38Z</time>
      </trkpt>
      <trkpt lat="51.212173256483" lon="4.466362218743">
        <ele>0</ele>
        <time>2020-06-14T12:25:03Z</time>
      </trkpt>
      <trkpt lat="51.212376014644" lon="4.467174424853">
        <ele>0</ele>
        <time>2020-06-14T12:25:22Z</time>
      </trkpt>
      <trkpt lat="51.21272671334" lon="4.467772557237">
        <ele>0</ele>
        <time>2020-06-14T12:25:43Z</time>
      </trkpt>
      <trkpt lat="51.212866104337" lon="4.4685752918">
        <ele>0</ele>
        <time>2020-06-14T12:26:13Z</time>
      </trkpt>
      <trkpt lat="51.213171876049" lon="4.469258919564">
        <ele>0</ele>
        <time>2020-06-14T12:26:38Z</time>
      </trkpt>
      <trkpt lat="51.213239350344" lon="4.470101468152">
        <ele>0</ele>
        <time>2020-06-14T12:27:01Z</time>
      </trkpt>
      <trkpt lat="51.213439677754" lon="4.470905962914">
        <ele>0</ele>
        <time>2020-06-14T12:27:21Z</time>
      </trkpt>
      <trkpt lat="51.213279164369" lon="4.471680115198">
        <ele>0</ele>
        <time>2020-06-14T12:27:52Z</time>
      </trkpt>
      <trkpt lat="51.213420315565" lon="4.472489974376">
        <ele>0</ele>
        <time>2020-06-14T12:28:22Z</time>
      </trkpt>
      <trkpt lat="51.213539590002" lon="4.473345934004">
        <ele>0</ele>
        <time>2020-06-14T12:28:51Z</time>
      </trkpt>
      <trkpt lat="51.213642938829" lon="4.474194098465">
        <ele>0</ele>
        <time>2020-06-14T12:29:21Z</time>
      </trkpt>
      <trkpt lat="51.213850139397" lon="4.474933298226">
        <ele>0</ele>
        <time>2020-06-14T12:29:51Z</time>
      </trkpt>
      <trkpt lat="51.213777719781" lon="4.475160782992">
        <ele>0.2</ele>
        <time>2020-06-14T12:30:07Z</time>
      </trkpt>
      <trkpt lat="51.213791298459" lon="4.47521124203">
        <ele>0</ele>
        <time>2020-06-14T12:30:52Z</time>
      </trkpt>
      <trkpt lat="51.21377612722" lon="4.475294139021">
        <ele>0</ele>
        <time>2020-06-14T12:30:56Z</time>
      </trkpt>
      <trkpt lat="51.21387251907" lon="4.476058400663">
        <ele>0</ele>
        <time>2020-06-14T12:31:29Z</time>
      </trkpt>
      <trkpt lat="51.214053484291" lon="4.476891226247">
        <ele>0</ele>
        <time>2020-06-14T12:31:58Z</time>
      </trkpt>
      <trkpt lat="51.214080893104" lon="4.477741821459">
        <ele>0</ele>
        <time>2020-06-14T12:32:28Z</time>
      </trkpt>
      <trkpt lat="51.214246100353" lon="4.478020100539">
        <ele>0</ele>
        <time>2020-06-14T12:32:40Z</time>
      </trkpt>
      <trkpt lat="51.21446931035" lon="4.478301480922">
        <ele>0</ele>
        <time>2020-06-14T12:33:03Z</time>
      </trkpt>
      <trkpt lat="51.214826966023" lon="4.478642205157">
        <ele>0</ele>
        <time>2020-06-14T12:33:25Z</time>
      </trkpt>
      <trkpt lat="51.21482637929" lon="4.478604318969">
        <ele>0</ele>
        <time>2020-06-14T12:33:27Z</time>
      </trkpt>
      <trkpt lat="51.214799305753" lon="4.478598703096">
        <ele>0</ele>
        <time>2020-06-14T12:33:29Z</time>
      </trkpt>
      <trkpt lat="51.215127876233" lon="4.478827864242">
        <ele>0</ele>
        <time>2020-06-14T12:33:49Z</time>
      </trkpt>
      <trkpt lat="51.215199290021" lon="4.478855943607">
        <ele>0</ele>
        <time>2020-06-14T12:33:52Z</time>
      </trkpt>
      <trkpt lat="51.215251844534" lon="4.478850495372">
        <ele>0</ele>
        <time>2020-06-14T12:33:54Z</time>
      </trkpt>
      <trkpt lat="51.215322001037" lon="4.478855356874">
        <ele>0</ele>
        <time>2020-06-14T12:33:57Z</time>
      </trkpt>
      <trkpt lat="51.215850982746" lon="4.479090720626">
        <ele>0</ele>
        <time>2020-06-14T12:34:24Z</time>
      </trkpt>
      <trkpt lat="51.216098081158" lon="4.47980200866">
        <ele>0</ele>
        <time>2020-06-14T12:34:55Z</time>
      </trkpt>
      <trkpt lat="51.216364374121" lon="4.480389915126">
        <ele>0</ele>
        <time>2020-06-14T12:35:17Z</time>
      </trkpt>
      <trkpt lat="51.216472668269" lon="4.480995675039">
        <ele>0</ele>
        <time>2020-06-14T12:35:46Z</time>
      </trkpt>
      <trkpt lat="51.216751198806" lon="4.481442933223">
        <ele>0</ele>
        <time>2020-06-14T12:36:15Z</time>
      </trkpt>
      <trkpt lat="51.216961584496" lon="4.481405047035">
        <ele>0</ele>
        <time>2020-06-14T12:36:35Z</time>
      </trkpt>
      <trkpt lat="51.217078092906" lon="4.479905776582">
        <ele>6.2</ele>
        <time>2020-06-14T12:37:19Z</time>
      </trkpt>
      <trkpt lat="51.217096030172" lon="4.479037244104">
        <ele>4.8</ele>
        <time>2020-06-14T12:37:42Z</time>
      </trkpt>
      <trkpt lat="51.217135508921" lon="4.478166280875">
        <ele>2.4</ele>
        <time>2020-06-14T12:38:13Z</time>
      </trkpt>
      <trkpt lat="51.217205413967" lon="4.477314176921">
        <ele>3.2</ele>
        <time>2020-06-14T12:38:41Z</time>
      </trkpt>
      <trkpt lat="51.217649906124" lon="4.477184173652">
        <ele>0</ele>
        <time>2020-06-14T12:39:08Z</time>
      </trkpt>
      <trkpt lat="51.217670106503" lon="4.477147796206">
        <ele>0</ele>
        <time>2020-06-14T12:39:10Z</time>
      </trkpt>
      <trkpt lat="51.218213253623" lon="4.477233040129">
        <ele>0</ele>
        <time>2020-06-14T12:39:43Z</time>
      </trkpt>
      <trkpt lat="51.218500249879" lon="4.477267825014">
        <ele>0</ele>
        <time>2020-06-14T12:40:12Z</time>
      </trkpt>
      <trkpt lat="51.218478792215" lon="4.477215689596">
        <ele>0</ele>
        <time>2020-06-14T12:40:38Z</time>
      </trkpt>
      <trkpt lat="51.218521875181" lon="4.47719859052">
        <ele>0</ele>
        <time>2020-06-14T12:40:42Z</time>
      </trkpt>
      <trkpt lat="51.218631594252" lon="4.477189705706">
        <ele>0</ele>
        <time>2020-06-14T12:40:53Z</time>
      </trkpt>
      <trkpt lat="51.218673168476" lon="4.47719020862">
        <ele>0</ele>
        <time>2020-06-14T12:41:09Z</time>
      </trkpt>
      <trkpt lat="51.218685657507" lon="4.477235219423">
        <ele>0</ele>
        <time>2020-06-14T12:41:11Z</time>
      </trkpt>
      <trkpt lat="51.218766542842" lon="4.477379136646">
        <ele>0</ele>
        <time>2020-06-14T12:41:18Z</time>
      </trkpt>
      <trkpt lat="51.218795460397" lon="4.477369832737">
        <ele>0</ele>
        <time>2020-06-14T12:41:20Z</time>
      </trkpt>
      <trkpt lat="51.218827143979" lon="4.477283918262">
        <ele>0</ele>
        <time>2020-06-14T12:41:24Z</time>
      </trkpt>
      <trkpt lat="51.218839968286" lon="4.477231447568">
        <ele>0</ele>
        <time>2020-06-14T12:41:26Z</time>
      </trkpt>
      <trkpt lat="51.218889840591" lon="4.477204876945">
        <ele>0</ele>
        <time>2020-06-14T12:41:29Z</time>
      </trkpt>
      <trkpt lat="51.219391413487" lon="4.477118878651">
        <ele>0</ele>
        <time>2020-06-14T12:41:54Z</time>
      </trkpt>
      <trkpt lat="51.219906397423" lon="4.476811514378">
        <ele>3.6</ele>
        <time>2020-06-14T12:42:13Z</time>
      </trkpt>
      <trkpt lat="51.220317445799" lon="4.477095241693">
        <ele>0</ele>
        <time>2020-06-14T12:42:30Z</time>
      </trkpt>
      <trkpt lat="51.220611818127" lon="4.477843661544">
        <ele>0</ele>
        <time>2020-06-14T12:42:50Z</time>
      </trkpt>
      <trkpt lat="51.220906944826" lon="4.478601133847">
        <ele>0</ele>
        <time>2020-06-14T12:43:11Z</time>
      </trkpt>
      <trkpt lat="51.221282789222" lon="4.479068843867">
        <ele>0</ele>
        <time>2020-06-14T12:43:33Z</time>
      </trkpt>
      <trkpt lat="51.221330230776" lon="4.479094743938">
        <ele>0</ele>
        <time>2020-06-14T12:43:35Z</time>
      </trkpt>
      <trkpt lat="51.221566432718" lon="4.479607800037">
        <ele>0</ele>
        <time>2020-06-14T12:43:51Z</time>
      </trkpt>
      <trkpt lat="51.22160146906" lon="4.479621043439">
        <ele>0</ele>
        <time>2020-06-14T12:43:53Z</time>
      </trkpt>
      <trkpt lat="51.221614544824" lon="4.479660857464">
        <ele>0</ele>
        <time>2020-06-14T12:43:55Z</time>
      </trkpt>
      <trkpt lat="51.22168528806" lon="4.479887001126">
        <ele>7.2</ele>
        <time>2020-06-14T12:44:04Z</time>
      </trkpt>
      <trkpt lat="51.222164648921" lon="4.479471594162">
        <ele>30.6</ele>
        <time>2020-06-14T12:44:30Z</time>
      </trkpt>
      <trkpt lat="51.222677956477" lon="4.479141347302">
        <ele>30.8</ele>
        <time>2020-06-14T12:44:52Z</time>
      </trkpt>
      <trkpt lat="51.222956235557" lon="4.479057779759">
        <ele>25.2</ele>
        <time>2020-06-14T12:45:04Z</time>
      </trkpt>
      <trkpt lat="51.222947686019" lon="4.479024252159">
        <ele>23.2</ele>
        <time>2020-06-14T12:45:07Z</time>
      </trkpt>
      <trkpt lat="51.222944836173" lon="4.478994915509">
        <ele>22.6</ele>
        <time>2020-06-14T12:45:09Z</time>
      </trkpt>
      <trkpt lat="51.222982135628" lon="4.478990808378">
        <ele>17.2</ele>
        <time>2020-06-14T12:45:25Z</time>
      </trkpt>
      <trkpt lat="51.222917846455" lon="4.479107232969">
        <ele>10.2</ele>
        <time>2020-06-14T12:53:37Z</time>
      </trkpt>
      <trkpt lat="51.223014238305" lon="4.479130702289">
        <ele>14.4</ele>
        <time>2020-06-14T12:57:19Z</time>
      </trkpt>
      <trkpt lat="51.223040473652" lon="4.479139922379">
        <ele>17.4</ele>
        <time>2020-06-14T12:58:33Z</time>
      </trkpt>
      <trkpt lat="51.223115743114" lon="4.479097174689">
        <ele>9.4</ele>
        <time>2020-06-14T12:58:48Z</time>
      </trkpt>
      <trkpt lat="51.223667439772" lon="4.47917671892">
        <ele>14</ele>
        <time>2020-06-14T12:59:15Z</time>
      </trkpt>
      <trkpt lat="51.224202791725" lon="4.479022575779">
        <ele>3</ele>
        <time>2020-06-14T12:59:37Z</time>
      </trkpt>
      <trkpt lat="51.224749375424" lon="4.479027772557">
        <ele>0</ele>
        <time>2020-06-14T12:59:59Z</time>
      </trkpt>
      <trkpt lat="51.225300652987" lon="4.478998352088">
        <ele>0</ele>
        <time>2020-06-14T13:00:22Z</time>
      </trkpt>
      <trkpt lat="51.225859893355" lon="4.4788850288">
        <ele>0</ele>
        <time>2020-06-14T13:00:47Z</time>
      </trkpt>
      <trkpt lat="51.226416451515" lon="4.478901373505">
        <ele>0</ele>
        <time>2020-06-14T13:01:10Z</time>
      </trkpt>
      <trkpt lat="51.226826410244" lon="4.478861643299">
        <ele>0</ele>
        <time>2020-06-14T13:01:29Z</time>
      </trkpt>
      <trkpt lat="51.227378945092" lon="4.478879412927">
        <ele>0</ele>
        <time>2020-06-14T13:01:53Z</time>
      </trkpt>
      <trkpt lat="51.227636185603" lon="4.478878407099">
        <ele>0</ele>
        <time>2020-06-14T13:02:09Z</time>
      </trkpt>
      <trkpt lat="51.228175812325" lon="4.478868600276">
        <ele>0</ele>
        <time>2020-06-14T13:02:30Z</time>
      </trkpt>
      <trkpt lat="51.228318807539" lon="4.478809424062">
        <ele>0</ele>
        <time>2020-06-14T13:02:37Z</time>
      </trkpt>
      <trkpt lat="51.228335403701" lon="4.47791105202">
        <ele>0.4</ele>
        <time>2020-06-14T13:02:58Z</time>
      </trkpt>
      <trkpt lat="51.228308162526" lon="4.477488855717">
        <ele>1.6</ele>
        <time>2020-06-14T13:03:09Z</time>
      </trkpt>
      <trkpt lat="51.227939610383" lon="4.476821321201">
        <ele>2.2</ele>
        <time>2020-06-14T13:03:33Z</time>
      </trkpt>
      <trkpt lat="51.227628306617" lon="4.476271971475">
        <ele>0.6</ele>
        <time>2020-06-14T13:03:54Z</time>
      </trkpt>
      <trkpt lat="51.227595617207" lon="4.476271133285">
        <ele>0.4</ele>
        <time>2020-06-14T13:03:56Z</time>
      </trkpt>
      <trkpt lat="51.227190017066" lon="4.476862895425">
        <ele>0.8</ele>
        <time>2020-06-14T13:04:18Z</time>
      </trkpt>
      <trkpt lat="51.226914671651" lon="4.477502266757">
        <ele>0</ele>
        <time>2020-06-14T13:04:46Z</time>
      </trkpt>
      <trkpt lat="51.226934452935" lon="4.478371888882">
        <ele>1.6</ele>
        <time>2020-06-14T13:05:11Z</time>
      </trkpt>
      <trkpt lat="51.226899081317" lon="4.47886910319">
        <ele>5.6</ele>
        <time>2020-06-14T13:05:24Z</time>
      </trkpt>
      <trkpt lat="51.22657361214" lon="4.47888586699">
        <ele>0.6</ele>
        <time>2020-06-14T13:05:43Z</time>
      </trkpt>
      <trkpt lat="51.226024430052" lon="4.478863738774">
        <ele>0</ele>
        <time>2020-06-14T13:06:04Z</time>
      </trkpt>
      <trkpt lat="51.225466949883" lon="4.478895254718">
        <ele>0</ele>
        <time>2020-06-14T13:06:28Z</time>
      </trkpt>
      <trkpt lat="51.225353878052" lon="4.478905480636">
        <ele>0</ele>
        <time>2020-06-14T13:06:33Z</time>
      </trkpt>
      <trkpt lat="51.225313142018" lon="4.478924675187">
        <ele>0</ele>
        <time>2020-06-14T13:06:35Z</time>
      </trkpt>
      <trkpt lat="51.224764043749" lon="4.47894873124">
        <ele>0</ele>
        <time>2020-06-14T13:07:02Z</time>
      </trkpt>
      <trkpt lat="51.224213017643" lon="4.478956442588">
        <ele>1.2</ele>
        <time>2020-06-14T13:07:28Z</time>
      </trkpt>
      <trkpt lat="51.223669702885" lon="4.47897890608">
        <ele>0</ele>
        <time>2020-06-14T13:07:55Z</time>
      </trkpt>
      <trkpt lat="51.223123705919" lon="4.479139587103">
        <ele>3.4</ele>
        <time>2020-06-14T13:08:24Z</time>
      </trkpt>
      <trkpt lat="51.222583073369" lon="4.479181496603">
        <ele>0</ele>
        <time>2020-06-14T13:08:55Z</time>
      </trkpt>
      <trkpt lat="51.22206582632" lon="4.479473941094">
        <ele>11.2</ele>
        <time>2020-06-14T13:09:19Z</time>
      </trkpt>
      <trkpt lat="51.221536425516" lon="4.479690194114">
        <ele>4.8</ele>
        <time>2020-06-14T13:09:46Z</time>
      </trkpt>
      <trkpt lat="51.221438524924" lon="4.479682901861">
        <ele>1</ele>
        <time>2020-06-14T13:09:53Z</time>
      </trkpt>
      <trkpt lat="51.221337606848" lon="4.479690445571">
        <ele>1.2</ele>
        <time>2020-06-14T13:10:25Z</time>
      </trkpt>
      <trkpt lat="51.221310449492" lon="4.47969974948">
        <ele>0.8</ele>
        <time>2020-06-14T13:10:27Z</time>
      </trkpt>
      <trkpt lat="51.220813402822" lon="4.480023877553">
        <ele>0</ele>
        <time>2020-06-14T13:10:57Z</time>
      </trkpt>
      <trkpt lat="51.220283750561" lon="4.480287153032">
        <ele>0</ele>
        <time>2020-06-14T13:11:29Z</time>
      </trkpt>
      <trkpt lat="51.219757283422" lon="4.480558223678">
        <ele>2.4</ele>
        <time>2020-06-14T13:11:55Z</time>
      </trkpt>
      <trkpt lat="51.219243137676" lon="4.480753605767">
        <ele>0</ele>
        <time>2020-06-14T13:12:19Z</time>
      </trkpt>
      <trkpt lat="51.218731255043" lon="4.481020066368">
        <ele>0</ele>
        <time>2020-06-14T13:12:33Z</time>
      </trkpt>
      <trkpt lat="51.218204536447" lon="4.481284431494">
        <ele>0</ele>
        <time>2020-06-14T13:12:48Z</time>
      </trkpt>
      <trkpt lat="51.217678320765" lon="4.48156304585">
        <ele>0</ele>
        <time>2020-06-14T13:13:05Z</time>
      </trkpt>
      <trkpt lat="51.21713559274" lon="4.481828416804">
        <ele>0</ele>
        <time>2020-06-14T13:13:21Z</time>
      </trkpt>
      <trkpt lat="51.216980359952" lon="4.481797236136">
        <ele>0</ele>
        <time>2020-06-14T13:13:26Z</time>
      </trkpt>
      <trkpt lat="51.217004248367" lon="4.48095787267">
        <ele>0</ele>
        <time>2020-06-14T13:13:44Z</time>
      </trkpt>
      <trkpt lat="51.217101143131" lon="4.480077354075">
        <ele>0</ele>
        <time>2020-06-14T13:14:05Z</time>
      </trkpt>
      <trkpt lat="51.217128551944" lon="4.479201361706">
        <ele>0</ele>
        <time>2020-06-14T13:14:27Z</time>
      </trkpt>
      <trkpt lat="51.21716073844" lon="4.478332996866">
        <ele>0</ele>
        <time>2020-06-14T13:14:52Z</time>
      </trkpt>
      <trkpt lat="51.21721689717" lon="4.477463793836">
        <ele>0</ele>
        <time>2020-06-14T13:15:21Z</time>
      </trkpt>
      <trkpt lat="51.217133581084" lon="4.476908828237">
        <ele>0</ele>
        <time>2020-06-14T13:15:41Z</time>
      </trkpt>
    </trkseg>
  </trk>
</gpx>